Ana Sayfa
METAR-TAF:

METAR-TAF

Havaalanları :

Ouagadougou, Burkina Faso

Enlem: 12-21N, Boylam: 001-31W, yükseklik: 316 m

Güncel hava durumu gözlemi

Rapor saat 03:00 UTC de 28 dakika önce yapıldı.
Rüzgar kuzeydoğudan 2 kt
Sıcaklık 22°C
Nem 38%
Basınç 1015 hPa
Görüş mesafesi 10 km veya daha fazla
1500 m altında bulut yok ve kümülonimbus yok

METAR: DFFD 130300Z 04002KT CAVOK 22/07 Q1015 NOSIG

Saat: 03:28 (03:28 UTC)

Tahmin

Rapor saat 23:00 UTC de 4 saat ve 28 dakika önce yapıldı.
Ayın 13'si saat 00 UTC'den ayın 14'si saat 06 UTC'ye kadar geçerli Tahmin
Rüzgar kuzeydoğudan 8 kt
Görüş mesafesi: 8000 m
Geçici
ayın 13'si saat 06 UTC'den ayın 13'si saat 10 UTC'ye kadar
Görüş mesafesi: 3500 m
Toz Pusu
Geçici
ayın 13'si saat 17 UTC'den ayın 13'si saat 20 UTC'ye kadar
Görüş mesafesi: 4000 m
Toz Pusu

TAF: DFFD 122300Z 1300/1406 04008KT 8000 NSC TEMPO 1306/1310 3500 HZ TEMPO 1317/1320 4000 HZ

4.000'den fazla havaalanı için hava durumu gözlemleri ve tahminleri (METAR ve TAF raporları).

Kullanılabilir istasyonlar harita üzerinde sarı ve kırmızı noktalarla gösterilir.

İstasyonun adını görmek için fareyi noktanın üzerinde gezdirin.

Sonrasında hava gözlem ve tahminlerini görmek için tıklayın.

Haritayı değiştirmek için: yaklaştırmak için siyah artı işaretli yeşil düğmeye ve uzaklaştırmak için de eksi işaretli düğmeye hızla tıklayın; bitişik haritalar için yeşil okları kullanın.


METAR-TAF: